Time;durP1;ratioP1;P1;durP2;ratioP2;P2;SDS_P1;SDS_P2;PMS_P1;PMS_P2;Temp;Humidity;BMP_temperature;BMP_pressure;BME280_temperature;BME280_humidity;BME280_pressure;Samples;Min_cycle;Max_cycle;Signal;HPM_P1;HPM_P2
2024/01/25 00:00:24;;;;;;;8.50;0.90;;;7.70;99.90;;;;;;5054245;28;20495;-83
2024/01/25 00:02:51;;;;;;;2.60;0.80;;;7.60;99.90;;;;;;5061118;28;21060;-82
2024/01/25 00:05:18;;;;;;;5.93;0.50;;;7.70;99.90;;;;;;5062161;28;20547;-83
2024/01/25 00:07:48;;;;;;;6.00;0.70;;;7.70;99.90;;;;;;5063289;28;20533;-84
2024/01/25 00:10:18;;;;;;;2.60;0.60;;;7.70;99.90;;;;;;5056472;28;20442;-83
2024/01/25 00:12:45;;;;;;;1.13;0.50;;;7.60;99.90;;;;;;5054341;28;20726;-83
2024/01/25 00:15:12;;;;;;;8.13;1.07;;;7.60;99.90;;;;;;5063253;28;20513;-84
2024/01/25 00:17:39;;;;;;;2.00;0.63;;;7.70;99.90;;;;;;5056026;28;20474;-83
2024/01/25 00:20:07;;;;;;;3.90;0.60;;;7.60;99.90;;;;;;5061899;28;20553;-81
2024/01/25 00:22:34;;;;;;;3.23;0.63;;;7.50;99.90;;;;;;5058455;28;20460;-82
2024/01/25 00:25:01;;;;;;;1.90;0.50;;;7.50;99.90;;;;;;5060729;28;20443;-82
2024/01/25 00:27:29;;;;;;;4.90;1.00;;;7.50;99.90;;;;;;5061109;28;21032;-82
2024/01/25 00:29:56;;;;;;;5.20;0.47;;;7.60;99.90;;;;;;5066244;28;20481;-84
2024/01/25 00:32:23;;;;;;;2.33;0.67;;;7.60;99.90;;;;;;5066065;28;20588;-83
2024/01/25 00:34:50;;;;;;;2.87;1.00;;;7.80;99.90;;;;;;5060420;28;20689;-83
2024/01/25 00:37:18;;;;;;;4.50;0.80;;;7.80;99.90;;;;;;5059938;28;20539;-82
2024/01/25 00:39:45;;;;;;;4.30;0.60;;;7.70;99.90;;;;;;5066038;28;20447;-83
2024/01/25 00:42:15;;;;;;;5.03;0.60;;;7.70;99.90;;;;;;5059413;28;20440;-83
2024/01/25 00:44:43;;;;;;;2.23;0.63;;;7.70;99.90;;;;;;5065365;28;20555;-84
2024/01/25 00:47:11;;;;;;;5.47;0.70;;;7.50;99.90;;;;;;5060739;28;20452;-85
2024/01/25 00:49:38;;;;;;;3.20;1.87;;;7.60;99.90;;;;;;5060120;28;20513;-83
2024/01/25 00:52:06;;;;;;;3.20;1.30;;;7.60;99.90;;;;;;5061365;28;20459;-85
2024/01/25 00:54:34;;;;;;;6.50;1.20;;;7.60;99.90;;;;;;5067134;28;20512;-83
2024/01/25 00:57:01;;;;;;;8.03;1.17;;;7.60;99.90;;;;;;5074308;28;20462;-85
2024/01/25 00:59:29;;;;;;;3.63;0.70;;;7.50;99.90;;;;;;5056212;28;20980;-85
2024/01/25 01:01:59;;;;;;;2.57;0.70;;;7.50;99.90;;;;;;5061261;28;20517;-84
2024/01/25 01:04:27;;;;;;;7.50;0.87;;;7.60;99.90;;;;;;5065775;28;20483;-83
2024/01/25 01:06:54;;;;;;;6.73;0.83;;;7.60;99.90;;;;;;5064818;28;20524;-84
2024/01/25 01:09:21;;;;;;;5.70;0.83;;;7.50;99.90;;;;;;5066777;28;20464;-86
2024/01/25 01:11:50;;;;;;;9.63;0.90;;;7.50;99.90;;;;;;5074048;28;20523;-84
2024/01/25 01:14:17;;;;;;;4.90;1.00;;;7.50;99.90;;;;;;5063635;28;20487;-86
2024/01/25 01:16:44;;;;;;;9.00;2.40;;;7.50;99.90;;;;;;5058291;28;20447;-84
2024/01/25 01:19:12;;;;;;;5.33;1.27;;;7.50;99.90;;;;;;5062531;28;20492;-84
2024/01/25 01:21:43;;;;;;;5.53;0.97;;;7.60;99.90;;;;;;5061859;28;20946;-87
2024/01/25 01:24:10;;;;;;;4.83;1.20;;;7.60;99.90;;;;;;5058822;28;20463;-84
2024/01/25 01:26:37;;;;;;;2.03;0.70;;;7.50;99.90;;;;;;5061728;28;20472;-84
2024/01/25 01:29:04;;;;;;;13.63;1.00;;;7.50;99.90;;;;;;5066749;28;20537;-84
2024/01/25 01:31:31;;;;;;;4.40;0.60;;;7.40;99.90;;;;;;5055684;28;20505;-86
2024/01/25 01:33:58;;;;;;;6.90;0.60;;;7.50;99.90;;;;;;5069525;28;20479;-84
2024/01/25 01:36:27;;;;;;;6.40;1.17;;;7.40;99.90;;;;;;5055102;28;20573;-87
2024/01/25 01:38:54;;;;;;;6.80;1.13;;;7.40;99.90;;;;;;5068280;28;20518;-84
2024/01/25 01:41:21;;;;;;;6.23;1.40;;;7.30;99.90;;;;;;5054200;28;20448;-84
2024/01/25 01:43:48;;;;;;;6.63;1.60;;;7.30;99.90;;;;;;5058193;28;20470;-83
2024/01/25 01:46:29;;;;;;;11.33;1.10;;;7.30;99.90;;;;;;5063185;28;20440;-86
2024/01/25 01:48:56;;;;;;;6.00;0.80;;;7.20;99.90;;;;;;5063999;28;20456;-85
2024/01/25 01:51:23;;;;;;;6.53;1.43;;;7.20;99.90;;;;;;5061280;28;20908;-87
2024/01/25 01:53:52;;;;;;;10.03;1.60;;;7.20;99.90;;;;;;5047892;28;21198;-84
2024/01/25 01:56:19;;;;;;;4.53;1.67;;;7.20;99.90;;;;;;5055756;28;20494;-84
2024/01/25 01:58:48;;;;;;;6.63;0.87;;;7.30;99.90;;;;;;5060363;28;20474;-84
2024/01/25 02:01:16;;;;;;;7.43;0.80;;;7.20;99.90;;;;;;5054427;28;20548;-84
2024/01/25 02:03:43;;;;;;;7.40;1.07;;;7.20;99.90;;;;;;5064433;28;20470;-84
2024/01/25 02:06:10;;;;;;;3.60;0.80;;;7.10;99.90;;;;;;5060600;28;20463;-84
2024/01/25 02:08:37;;;;;;;7.17;1.37;;;7.20;99.90;;;;;;5065058;28;20527;-85
2024/01/25 02:11:05;;;;;;;5.17;1.33;;;7.30;99.90;;;;;;5058361;28;20465;-83
2024/01/25 02:13:32;;;;;;;18.67;2.30;;;7.30;99.90;;;;;;5066935;28;21092;-87
2024/01/25 02:15:59;;;;;;;3.63;0.90;;;7.30;99.90;;;;;;5066800;28;20443;-85
2024/01/25 02:18:27;;;;;;;5.23;1.70;;;7.20;99.90;;;;;;5064204;28;20613;-84
2024/01/25 02:20:53;;;;;;;6.13;1.43;;;7.30;99.90;;;;;;5066472;28;20536;-82
2024/01/25 02:23:22;;;;;;;9.17;1.47;;;7.30;99.90;;;;;;5064204;28;20973;-84
2024/01/25 02:25:49;;;;;;;4.90;0.90;;;7.30;99.90;;;;;;5052691;28;20837;-86
2024/01/25 02:28:16;;;;;;;2.13;0.50;;;7.40;99.90;;;;;;5061806;28;20663;-86
2024/01/25 02:30:43;;;;;;;7.73;1.00;;;7.30;99.90;;;;;;5065765;28;20518;-87
2024/01/25 02:33:09;;;;;;;4.00;0.80;;;7.20;99.90;;;;;;5066669;28;20481;-87
2024/01/25 02:35:37;;;;;;;5.70;0.83;;;7.20;99.90;;;;;;5064882;28;20853;-84
2024/01/25 02:38:05;;;;;;;4.07;1.10;;;7.20;99.90;;;;;;5066357;28;20502;-83
2024/01/25 02:40:33;;;;;;;5.27;1.00;;;7.20;99.90;;;;;;5063604;28;20463;-84
2024/01/25 02:43:00;;;;;;;10.13;1.13;;;7.20;99.90;;;;;;5062483;28;20452;-83
2024/01/25 02:45:27;;;;;;;6.40;0.80;;;7.20;99.90;;;;;;5054480;28;20455;-84
2024/01/25 02:47:54;;;;;;;5.60;1.27;;;7.10;99.90;;;;;;5054355;28;20518;-86
2024/01/25 02:50:21;;;;;;;6.10;1.00;;;7.10;99.90;;;;;;5054977;28;20446;-83
2024/01/25 02:52:48;;;;;;;12.27;0.93;;;7.10;99.90;;;;;;5060581;28;20473;-82
2024/01/25 02:55:15;;;;;;;7.87;1.50;;;7.20;99.90;;;;;;5056939;28;20503;-82
2024/01/25 02:57:43;;;;;;;3.83;0.93;;;7.30;99.90;;;;;;5062475;28;20988;-84
2024/01/25 03:00:10;;;;;;;4.73;1.03;;;7.20;99.90;;;;;;5047059;28;20862;-82
2024/01/25 03:02:37;;;;;;;7.00;2.33;;;7.20;99.90;;;;;;5053494;28;20486;-82
2024/01/25 03:05:05;;;;;;;10.80;1.67;;;7.20;99.90;;;;;;5071323;28;20523;-84
2024/01/25 03:07:32;;;;;;;3.53;0.90;;;7.20;99.90;;;;;;5064492;28;20501;-82
2024/01/25 03:09:59;;;;;;;4.37;1.00;;;7.20;99.90;;;;;;5056820;28;20453;-82
2024/01/25 03:12:25;;;;;;;3.47;0.70;;;7.20;99.90;;;;;;5071714;28;20552;-84
2024/01/25 03:14:54;;;;;;;6.00;1.17;;;7.20;99.90;;;;;;5064791;28;20483;-83
2024/01/25 03:17:21;;;;;;;4.17;0.60;;;7.20;99.90;;;;;;5062012;28;20502;-81
2024/01/25 03:19:48;;;;;;;9.83;2.40;;;7.20;99.90;;;;;;5056600;28;21223;-82
2024/01/25 03:22:15;;;;;;;11.93;2.03;;;7.20;99.90;;;;;;5063905;28;20461;-82
2024/01/25 03:24:42;;;;;;;2.37;0.80;;;7.20;99.90;;;;;;5058763;28;20739;-83
2024/01/25 03:27:13;;;;;;;3.80;0.80;;;7.20;99.90;;;;;;5061633;28;20475;-84
2024/01/25 03:29:42;;;;;;;4.73;1.13;;;7.30;99.90;;;;;;5070459;28;20826;-81
2024/01/25 03:32:10;;;;;;;10.03;2.20;;;7.30;99.90;;;;;;5069032;28;20440;-84
2024/01/25 03:34:37;;;;;;;6.03;1.10;;;7.40;99.90;;;;;;5059119;28;20544;-83
2024/01/25 03:37:04;;;;;;;9.47;1.70;;;7.40;99.90;;;;;;5063720;28;20468;-86
2024/01/25 03:39:31;;;;;;;17.33;3.10;;;7.40;99.90;;;;;;5055878;28;20515;-83
2024/01/25 03:41:58;;;;;;;5.80;1.30;;;7.40;99.90;;;;;;5048376;28;20534;-83
2024/01/25 03:44:25;;;;;;;9.70;1.40;;;7.40;99.90;;;;;;5047138;28;20564;-86
2024/01/25 03:46:52;;;;;;;4.30;1.20;;;7.30;99.90;;;;;;5049124;28;20445;-84
2024/01/25 03:49:22;;;;;;;10.57;1.20;;;7.20;99.90;;;;;;5050870;28;20538;-83
2024/01/25 03:51:50;;;;;;;2.63;1.00;;;7.20;99.90;;;;;;5057421;28;20463;-83
2024/01/25 03:54:17;;;;;;;6.73;2.60;;;7.20;99.90;;;;;;5058743;28;20567;-85
2024/01/25 03:56:44;;;;;;;5.70;1.40;;;7.20;99.90;;;;;;5066753;28;20817;-83
2024/01/25 03:59:13;;;;;;;5.10;1.23;;;7.20;99.90;;;;;;5063292;28;21075;-83
2024/01/25 04:01:44;;;;;;;2.83;0.70;;;7.20;99.90;;;;;;5062732;28;20532;-83
2024/01/25 04:04:12;;;;;;;7.17;1.70;;;7.20;99.90;;;;;;5051863;28;20528;-83
2024/01/25 04:06:42;;;;;;;7.27;1.07;;;7.20;99.90;;;;;;5056454;28;20534;-83
2024/01/25 04:09:09;;;;;;;5.37;1.10;;;7.20;99.90;;;;;;5054402;28;20482;-83
2024/01/25 04:11:36;;;;;;;4.50;1.10;;;7.30;99.90;;;;;;5071830;28;20448;-85
2024/01/25 04:14:03;;;;;;;1.80;0.70;;;7.30;99.90;;;;;;5064754;28;20537;-86
2024/01/25 04:16:30;;;;;;;3.90;1.43;;;7.30;99.90;;;;;;5061650;28;21006;-87
2024/01/25 04:18:57;;;;;;;15.40;2.30;;;7.40;99.90;;;;;;5064879;28;20549;-83
2024/01/25 04:21:24;;;;;;;4.93;1.13;;;7.40;99.90;;;;;;5057144;28;20533;-85
2024/01/25 04:23:53;;;;;;;10.77;3.03;;;7.40;99.90;;;;;;5059447;28;21069;-83
2024/01/25 04:26:20;;;;;;;6.93;1.20;;;7.50;99.90;;;;;;5052058;28;20813;-82
2024/01/25 04:28:46;;;;;;;13.03;2.60;;;7.50;99.90;;;;;;5069361;28;20854;-82
2024/01/25 04:31:13;;;;;;;5.03;1.37;;;7.40;99.90;;;;;;5063166;28;20451;-82
2024/01/25 04:33:41;;;;;;;4.60;1.33;;;7.40;99.90;;;;;;5067741;28;20862;-83
2024/01/25 04:36:08;;;;;;;2.03;0.80;;;7.30;99.90;;;;;;5065027;28;20438;-82
2024/01/25 04:38:35;;;;;;;3.37;1.00;;;7.30;99.90;;;;;;5071383;28;20528;-82
2024/01/25 04:41:03;;;;;;;2.33;1.30;;;7.20;99.90;;;;;;5055478;28;20467;-83
2024/01/25 04:43:34;;;;;;;14.20;1.50;;;7.10;99.90;;;;;;5065248;28;20516;-83
2024/01/25 04:46:01;;;;;;;7.53;1.60;;;7.20;99.90;;;;;;5069987;28;20447;-82
2024/01/25 04:48:28;;;;;;;10.17;1.70;;;7.10;99.90;;;;;;5068473;28;20977;-83
2024/01/25 04:50:55;;;;;;;6.03;1.07;;;7.20;99.90;;;;;;5065264;28;20514;-85
2024/01/25 04:53:22;;;;;;;7.63;1.47;;;7.20;99.90;;;;;;5061882;28;20513;-82
2024/01/25 04:55:49;;;;;;;8.87;2.67;;;7.30;99.90;;;;;;5050736;28;20491;-82
2024/01/25 04:58:17;;;;;;;7.37;1.70;;;7.30;99.90;;;;;;5063335;28;21021;-83
2024/01/25 05:00:44;;;;;;;10.70;1.93;;;7.30;99.90;;;;;;5052877;28;20515;-82
2024/01/25 05:03:11;;;;;;;9.20;1.33;;;7.40;99.90;;;;;;5065537;28;20990;-81
2024/01/25 05:05:38;;;;;;;7.33;1.70;;;7.50;99.90;;;;;;5060593;28;20505;-82
2024/01/25 05:08:05;;;;;;;8.70;2.47;;;7.50;99.90;;;;;;5062533;28;20463;-85
2024/01/25 05:10:32;;;;;;;8.50;1.40;;;7.40;99.90;;;;;;5064218;28;20516;-82
2024/01/25 05:12:59;;;;;;;6.10;1.27;;;7.50;99.90;;;;;;5065231;28;20467;-82
2024/01/25 05:15:28;;;;;;;14.57;1.40;;;7.40;99.90;;;;;;5069181;28;20484;-84
2024/01/25 05:17:55;;;;;;;9.10;2.60;;;7.40;99.90;;;;;;5067031;28;20462;-82
2024/01/25 05:20:21;;;;;;;4.20;1.00;;;7.50;99.90;;;;;;5068308;28;20462;-84
2024/01/25 05:22:49;;;;;;;9.43;1.47;;;7.40;99.90;;;;;;5075721;28;20468;-82
2024/01/25 05:25:16;;;;;;;4.00;1.77;;;7.40;99.90;;;;;;5066277;28;20532;-84
2024/01/25 05:27:43;;;;;;;2.97;0.90;;;7.30;99.90;;;;;;5066483;28;20490;-83
2024/01/25 05:30:10;;;;;;;5.50;0.93;;;7.20;99.90;;;;;;5066509;28;20472;-81
2024/01/25 05:32:39;;;;;;;7.50;1.23;;;7.10;99.90;;;;;;5076796;28;20517;-81
2024/01/25 05:35:07;;;;;;;6.03;0.93;;;6.90;99.90;;;;;;5069461;28;20556;-81
2024/01/25 05:37:34;;;;;;;7.17;1.27;;;6.90;99.90;;;;;;5064770;28;21200;-82
2024/01/25 05:40:01;;;;;;;7.33;1.23;;;6.80;99.90;;;;;;5059291;28;20443;-81
2024/01/25 05:42:28;;;;;;;7.77;1.67;;;6.90;99.90;;;;;;5048475;28;20476;-81
2024/01/25 05:44:55;;;;;;;5.77;0.87;;;6.80;99.90;;;;;;5068559;28;20490;-81
2024/01/25 05:47:22;;;;;;;8.27;1.20;;;6.70;99.90;;;;;;5068330;28;20503;-80
2024/01/25 05:49:51;;;;;;;8.27;1.60;;;6.70;99.90;;;;;;5061916;28;20520;-81
2024/01/25 05:52:18;;;;;;;3.40;1.20;;;6.70;99.90;;;;;;5063085;28;20922;-81
2024/01/25 05:54:45;;;;;;;12.13;0.90;;;6.70;99.90;;;;;;5069982;28;21218;-81
2024/01/25 05:57:12;;;;;;;7.20;1.90;;;6.60;99.90;;;;;;5057788;28;20521;-81
2024/01/25 05:59:39;;;;;;;7.90;1.57;;;6.60;99.90;;;;;;5056491;28;20499;-84
2024/01/25 06:02:07;;;;;;;2.17;0.90;;;6.60;99.90;;;;;;5060077;28;20492;-81
2024/01/25 06:04:34;;;;;;;5.63;0.70;;;6.60;99.90;;;;;;5055222;28;20461;-81
2024/01/25 06:07:03;;;;;;;3.70;0.90;;;6.70;99.90;;;;;;5059105;28;20522;-81
2024/01/25 06:09:31;;;;;;;10.83;1.10;;;6.70;99.90;;;;;;5059945;28;20463;-83
2024/01/25 06:11:58;;;;;;;4.13;1.10;;;6.80;99.90;;;;;;5051154;28;20521;-81
2024/01/25 06:14:25;;;;;;;5.63;1.00;;;6.70;99.90;;;;;;5063210;28;20482;-81
2024/01/25 06:16:52;;;;;;;8.20;1.17;;;6.60;99.90;;;;;;5063405;28;20453;-82
2024/01/25 06:19:19;;;;;;;8.93;1.17;;;6.60;99.90;;;;;;5066589;28;21020;-81
2024/01/25 06:21:46;;;;;;;2.70;1.20;;;6.50;99.90;;;;;;5065683;28;20469;-82
2024/01/25 06:24:15;;;;;;;14.97;2.27;;;6.40;99.90;;;;;;5067701;28;20454;-81
2024/01/25 06:26:41;;;;;;;7.63;1.03;;;6.40;99.90;;;;;;5066542;28;20471;-81
2024/01/25 06:29:08;;;;;;;6.30;0.90;;;6.50;99.90;;;;;;5063791;28;20525;-81
2024/01/25 06:31:43;;;;;;;7.70;1.10;;;6.50;99.90;;;;;;5067319;28;20532;-81
2024/01/25 06:34:09;;;;;;;6.00;1.00;;;6.60;99.90;;;;;;5064829;28;20967;-81
2024/01/25 06:36:36;;;;;;;8.13;1.63;;;6.60;99.90;;;;;;5066821;28;20545;-82
2024/01/25 06:39:04;;;;;;;8.97;1.57;;;6.60;99.90;;;;;;5053064;28;20738;-81
2024/01/25 06:41:32;;;;;;;8.07;1.33;;;6.70;99.90;;;;;;5060650;28;20545;-81
2024/01/25 06:44:00;;;;;;;5.20;0.90;;;6.70;99.90;;;;;;5053925;28;20448;-82
2024/01/25 06:46:27;;;;;;;6.63;2.60;;;6.60;99.90;;;;;;5066959;28;20539;-83
2024/01/25 06:48:54;;;;;;;3.23;0.70;;;6.70;99.90;;;;;;5061541;28;20516;-82
2024/01/25 06:51:21;;;;;;;8.73;1.13;;;6.70;99.90;;;;;;5061413;28;20450;-83
2024/01/25 06:53:48;;;;;;;13.83;1.97;;;6.80;99.90;;;;;;5059346;28;20540;-83
2024/01/25 06:56:15;;;;;;;2.10;0.80;;;6.80;99.90;;;;;;5061701;28;20584;-84
2024/01/25 06:58:43;;;;;;;8.00;2.07;;;6.80;99.90;;;;;;5060949;28;20504;-85
2024/01/25 07:01:11;;;;;;;6.10;1.10;;;6.80;99.90;;;;;;5056278;28;20441;-84
2024/01/25 07:03:38;;;;;;;9.13;1.53;;;6.80;99.90;;;;;;5056759;28;20513;-83
2024/01/25 07:06:05;;;;;;;5.17;0.73;;;6.90;99.90;;;;;;5055106;28;20477;-83
2024/01/25 07:08:32;;;;;;;5.93;0.97;;;7.00;99.90;;;;;;5055123;28;20467;-83
2024/01/25 07:11:01;;;;;;;6.63;1.53;;;7.00;99.90;;;;;;5056599;28;20510;-82
2024/01/25 07:13:28;;;;;;;3.23;0.70;;;7.00;99.90;;;;;;5064816;28;20450;-78
2024/01/25 07:15:56;;;;;;;7.60;1.60;;;6.90;99.90;;;;;;5066256;28;20518;-79
2024/01/25 07:18:24;;;;;;;8.87;1.17;;;6.90;99.90;;;;;;5066073;28;20440;-80
2024/01/25 07:20:51;;;;;;;13.50;1.33;;;6.70;99.90;;;;;;5066504;28;20803;-80
2024/01/25 07:23:18;;;;;;;17.80;1.60;;;6.70;99.90;;;;;;5057596;28;20454;-79
2024/01/25 07:25:45;;;;;;;9.03;0.80;;;6.70;99.90;;;;;;5062488;28;20551;-81
2024/01/25 07:28:12;;;;;;;7.97;1.57;;;6.70;99.90;;;;;;5063457;28;20568;-81
2024/01/25 07:30:39;;;;;;;7.07;1.77;;;6.70;99.90;;;;;;5050526;28;20526;-82
2024/01/25 07:33:08;;;;;;;12.47;1.37;;;6.70;99.90;;;;;;5052450;28;20444;-82
2024/01/25 07:35:35;;;;;;;4.97;1.10;;;6.80;99.90;;;;;;5053114;28;20989;-82
2024/01/25 07:38:02;;;;;;;6.97;1.73;;;6.80;99.90;;;;;;5056884;28;20506;-83
2024/01/25 07:40:29;;;;;;;4.43;1.50;;;6.90;99.90;;;;;;5063768;28;20459;-83
2024/01/25 07:42:56;;;;;;;10.20;2.07;;;7.00;99.90;;;;;;5054192;28;20506;-83
2024/01/25 07:45:23;;;;;;;13.87;2.70;;;7.00;99.90;;;;;;5059129;28;20453;-82
2024/01/25 07:47:49;;;;;;;14.97;3.40;;;7.00;99.90;;;;;;5059616;28;20494;-83
2024/01/25 07:50:17;;;;;;;5.97;2.13;;;6.90;99.90;;;;;;5056549;28;20485;-83
2024/01/25 07:52:44;;;;;;;5.90;1.23;;;6.90;99.90;;;;;;5053498;28;20551;-83
2024/01/25 07:55:11;;;;;;;10.90;1.70;;;6.90;99.90;;;;;;5052529;28;20533;-82
2024/01/25 07:57:38;;;;;;;9.70;1.67;;;6.80;99.90;;;;;;5073418;28;20461;-82
2024/01/25 08:00:07;;;;;;;11.33;1.90;;;6.70;99.90;;;;;;5055385;28;20816;-83
2024/01/25 08:02:34;;;;;;;4.00;1.33;;;6.80;99.90;;;;;;5060502;28;20474;-81
2024/01/25 08:05:01;;;;;;;10.00;1.57;;;6.80;99.90;;;;;;5051267;28;20502;-79
2024/01/25 08:07:30;;;;;;;5.63;1.10;;;6.80;99.90;;;;;;5053039;28;20470;-79
2024/01/25 08:09:58;;;;;;;6.43;1.20;;;6.70;99.90;;;;;;5048438;28;20453;-81
2024/01/25 08:12:25;;;;;;;8.47;2.63;;;6.80;99.90;;;;;;5047971;28;20445;-86
2024/01/25 08:14:52;;;;;;;9.30;2.30;;;6.80;99.90;;;;;;5057643;28;20885;-83
2024/01/25 08:17:19;;;;;;;11.90;1.87;;;6.80;99.90;;;;;;5064864;28;20932;-76
2024/01/25 08:19:46;;;;;;;3.87;1.00;;;6.80;99.90;;;;;;5067106;28;20529;-77
2024/01/25 08:22:13;;;;;;;4.83;0.90;;;6.90;99.90;;;;;;5056986;28;20548;-80
2024/01/25 08:24:42;;;;;;;7.97;1.50;;;6.90;99.90;;;;;;5064223;28;20509;-85
2024/01/25 08:27:09;;;;;;;9.50;1.20;;;6.90;99.90;;;;;;5063871;28;20582;-77
2024/01/25 08:29:37;;;;;;;7.53;2.03;;;7.00;99.90;;;;;;5065265;28;20529;-76
2024/01/25 08:32:04;;;;;;;4.20;1.60;;;7.00;99.90;;;;;;5061040;28;20494;-84
2024/01/25 08:34:31;;;;;;;8.10;1.80;;;7.00;99.90;;;;;;5065841;28;20510;-88
2024/01/25 08:36:58;;;;;;;7.23;1.53;;;7.10;99.90;;;;;;5065229;28;21049;-77
2024/01/25 08:39:25;;;;;;;10.73;3.33;;;7.20;99.90;;;;;;5066704;28;20473;-81
2024/01/25 08:41:53;;;;;;;6.53;1.80;;;7.20;99.90;;;;;;5066066;28;21018;-80
2024/01/25 08:44:20;;;;;;;5.70;1.53;;;7.20;99.90;;;;;;5058403;28;20459;-80
2024/01/25 08:46:47;;;;;;;7.07;2.23;;;7.20;99.90;;;;;;5065013;28;20851;-80
2024/01/25 08:49:14;;;;;;;6.67;1.77;;;7.30;99.90;;;;;;5072105;28;20514;-80
2024/01/25 08:51:41;;;;;;;9.60;1.47;;;7.30;99.90;;;;;;5065734;28;21017;-81
2024/01/25 08:54:08;;;;;;;7.00;1.37;;;7.30;99.90;;;;;;5064493;28;20548;-80
2024/01/25 08:56:35;;;;;;;5.40;1.57;;;7.40;99.90;;;;;;5066217;28;20483;-81
2024/01/25 08:59:04;;;;;;;7.93;1.07;;;7.40;99.90;;;;;;5064993;28;20442;-81
2024/01/25 09:01:31;;;;;;;4.87;1.33;;;7.40;99.90;;;;;;5056141;28;20448;-80
2024/01/25 09:04:02;;;;;;;17.30;2.47;;;7.40;99.90;;;;;;5065592;28;20428;-81
2024/01/25 09:06:29;;;;;;;4.87;2.10;;;7.30;99.90;;;;;;5065566;28;21055;-82
2024/01/25 09:08:56;;;;;;;5.77;1.87;;;7.40;99.90;;;;;;5059376;28;20496;-80
2024/01/25 09:11:23;;;;;;;3.93;1.93;;;7.40;99.90;;;;;;5059755;28;20538;-80
2024/01/25 09:13:50;;;;;;;13.20;2.10;;;7.50;99.90;;;;;;5069526;28;20443;-81
2024/01/25 09:16:19;;;;;;;11.30;1.63;;;7.50;99.90;;;;;;5069431;28;20513;-82
2024/01/25 09:18:46;;;;;;;9.07;1.57;;;7.50;99.90;;;;;;5071896;28;20455;-81
2024/01/25 09:21:13;;;;;;;4.57;1.20;;;7.50;99.90;;;;;;5063445;28;20535;-80
2024/01/25 09:23:40;;;;;;;5.27;1.00;;;7.50;99.90;;;;;;5066822;28;20517;-80
2024/01/25 09:26:08;;;;;;;6.40;1.00;;;7.60;99.90;;;;;;5051514;28;20519;-80
2024/01/25 09:28:35;;;;;;;8.30;1.57;;;7.50;99.90;;;;;;5067721;28;20495;-80
2024/01/25 09:31:02;;;;;;;9.33;1.40;;;7.50;99.90;;;;;;5061767;28;20546;-81
2024/01/25 09:33:31;;;;;;;8.73;1.57;;;7.60;99.90;;;;;;5063677;28;20464;-81
2024/01/25 09:35:58;;;;;;;9.60;1.23;;;7.60;99.90;;;;;;5067189;28;21332;-80
2024/01/25 09:38:25;;;;;;;6.73;1.63;;;7.60;99.90;;;;;;5057677;28;20453;-81
2024/01/25 09:40:52;;;;;;;3.07;1.53;;;7.50;99.90;;;;;;5056388;28;21033;-80
2024/01/25 09:43:20;;;;;;;9.47;2.30;;;7.50;99.90;;;;;;5060478;28;20517;-81
2024/01/25 09:45:49;;;;;;;10.90;2.30;;;7.70;99.90;;;;;;5066932;28;20447;-81
2024/01/25 09:48:17;;;;;;;11.70;2.20;;;7.70;99.90;;;;;;5061382;28;20441;-80
2024/01/25 09:50:48;;;;;;;6.33;1.10;;;7.70;99.90;;;;;;5048115;28;20863;-81
2024/01/25 09:53:21;;;;;;;6.83;1.10;;;7.70;99.90;;;;;;5057032;28;20466;-81
2024/01/25 09:55:58;;;;;;;8.27;1.50;;;7.70;99.90;;;;;;5067766;28;20518;-82
2024/01/25 09:58:30;;;;;;;13.87;1.70;;;7.60;99.90;;;;;;5062411;28;20449;-80
2024/01/25 10:00:57;;;;;;;7.83;1.63;;;7.60;99.90;;;;;;5055131;28;20467;-83
2024/01/25 10:03:24;;;;;;;5.10;1.50;;;7.60;99.90;;;;;;5055311;28;20460;-81
2024/01/25 10:05:53;;;;;;;8.20;1.40;;;7.60;99.90;;;;;;5060181;28;20472;-81
2024/01/25 10:08:23;;;;;;;4.00;1.07;;;7.70;99.90;;;;;;5063739;28;20928;-81
2024/01/25 10:10:53;;;;;;;8.47;2.60;;;7.80;99.90;;;;;;5056422;28;20469;-82
2024/01/25 10:13:20;;;;;;;7.83;3.30;;;7.90;98.90;;;;;;5053397;28;20586;-82
2024/01/25 10:15:48;;;;;;;4.13;1.10;;;7.90;98.30;;;;;;5064554;28;20570;-82
2024/01/25 10:18:15;;;;;;;5.53;1.20;;;7.90;98.90;;;;;;5068852;28;20630;-82
2024/01/25 10:20:44;;;;;;;11.03;1.43;;;7.90;99.90;;;;;;5065026;28;20467;-81
2024/01/25 10:23:12;;;;;;;7.57;1.53;;;7.80;99.90;;;;;;5062466;28;20997;-83
2024/01/25 10:25:39;;;;;;;10.70;1.63;;;7.90;99.90;;;;;;5065829;28;20475;-81
2024/01/25 10:28:07;;;;;;;7.43;1.63;;;7.90;99.90;;;;;;5064839;28;20492;-83
2024/01/25 10:30:36;;;;;;;3.20;1.63;;;7.90;99.90;;;;;;5051834;28;20810;-81
2024/01/25 10:33:04;;;;;;;8.83;3.50;;;8.00;99.90;;;;;;5061566;28;20569;-82
2024/01/25 10:35:32;;;;;;;9.73;1.43;;;8.00;99.90;;;;;;5064465;28;20789;-81
2024/01/25 10:37:59;;;;;;;14.50;3.90;;;8.10;99.90;;;;;;5060721;28;20526;-80
2024/01/25 10:40:29;;;;;;;5.87;1.50;;;8.00;99.90;;;;;;5067354;28;20477;-81
2024/01/25 10:42:57;;;;;;;8.50;1.83;;;7.90;99.90;;;;;;5057219;28;20505;-80
2024/01/25 10:45:24;;;;;;;3.43;1.73;;;7.80;99.90;;;;;;5056528;28;20444;-82
2024/01/25 10:47:51;;;;;;;9.07;1.40;;;7.90;99.90;;;;;;5059367;28;20488;-82
2024/01/25 10:50:18;;;;;;;5.03;1.23;;;7.90;99.90;;;;;;5062942;28;20541;-81
2024/01/25 10:52:46;;;;;;;4.00;1.37;;;7.90;99.80;;;;;;5048374;28;20464;-84
2024/01/25 10:55:15;;;;;;;5.27;0.90;;;7.90;99.90;;;;;;5064104;28;20911;-81
2024/01/25 10:57:47;;;;;;;4.30;1.50;;;8.00;99.90;;;;;;5062091;28;20569;-80
2024/01/25 11:00:16;;;;;;;5.07;1.20;;;8.00;96.80;;;;;;5055498;28;20950;-81
2024/01/25 11:02:44;;;;;;;4.43;0.90;;;8.00;97.20;;;;;;5059032;28;20458;-82
2024/01/25 11:05:12;;;;;;;4.13;1.47;;;7.80;96.60;;;;;;5053731;28;20492;-81
2024/01/25 11:07:44;;;;;;;5.37;1.20;;;7.80;95.60;;;;;;5058996;28;20528;-80
2024/01/25 11:10:17;;;;;;;4.60;1.10;;;7.80;95.40;;;;;;5049515;28;20887;-80
2024/01/25 11:12:52;;;;;;;6.40;1.30;;;7.90;94.00;;;;;;5057883;28;20444;-80
2024/01/25 11:15:22;;;;;;;4.20;1.10;;;8.00;94.30;;;;;;5057566;28;20456;-81
2024/01/25 11:17:54;;;;;;;2.43;0.70;;;8.00;94.50;;;;;;5066810;28;20936;-80
2024/01/25 11:20:25;;;;;;;12.07;1.97;;;8.00;95.40;;;;;;5066504;28;20486;-80
2024/01/25 11:22:57;;;;;;;7.10;0.90;;;7.90;96.00;;;;;;5066811;28;20477;-81
2024/01/25 11:25:27;;;;;;;8.57;1.73;;;7.80;97.40;;;;;;5066349;28;20440;-80
2024/01/25 11:27:56;;;;;;;9.93;1.60;;;7.80;97.00;;;;;;5065114;28;21020;-80
2024/01/25 11:30:23;;;;;;;5.47;1.23;;;7.80;97.40;;;;;;5066674;28;20912;-81
2024/01/25 11:32:50;;;;;;;9.73;2.40;;;7.70;98.20;;;;;;5056004;28;20491;-81
2024/01/25 11:35:17;;;;;;;6.43;1.00;;;7.80;98.60;;;;;;5065173;28;20491;-82
2024/01/25 11:37:45;;;;;;;3.87;1.00;;;7.80;99.30;;;;;;5060145;28;20510;-81
2024/01/25 11:40:13;;;;;;;6.10;1.50;;;7.90;99.20;;;;;;5065156;28;20550;-82
2024/01/25 11:42:40;;;;;;;14.53;1.60;;;7.90;97.70;;;;;;5052651;28;20833;-81
2024/01/25 11:45:10;;;;;;;19.33;2.13;;;7.90;98.40;;;;;;5050693;28;20445;-80
2024/01/25 11:47:38;;;;;;;5.63;1.70;;;7.90;97.60;;;;;;5059064;28;20516;-80
2024/01/25 11:50:07;;;;;;;8.57;1.63;;;8.00;98.60;;;;;;5055123;28;20437;-81
2024/01/25 11:52:34;;;;;;;5.77;1.23;;;8.10;97.00;;;;;;5056266;28;20474;-79
2024/01/25 11:55:02;;;;;;;3.80;0.87;;;8.00;95.50;;;;;;5054595;28;20468;-80
2024/01/25 11:57:30;;;;;;;6.87;1.33;;;8.00;95.70;;;;;;5053767;28;20532;-80
2024/01/25 11:59:57;;;;;;;5.40;1.17;;;8.10;95.70;;;;;;5052699;28;20857;-80
2024/01/25 12:02:26;;;;;;;7.30;1.30;;;8.10;95.40;;;;;;5050877;28;20442;-80
2024/01/25 12:04:55;;;;;;;4.40;1.20;;;8.20;95.10;;;;;;5052704;28;20460;-80
2024/01/25 12:07:22;;;;;;;3.37;1.00;;;8.10;96.00;;;;;;5066084;28;21054;-80
2024/01/25 12:09:59;;;;;;;3.87;0.87;;;8.10;95.50;;;;;;5056041;28;20526;-83
2024/01/25 12:12:26;;;;;;;3.97;0.80;;;8.10;95.20;;;;;;5064226;28;20515;-82
2024/01/25 12:14:58;;;;;;;7.10;1.33;;;8.10;95.20;;;;;;5062204;28;20534;-81
2024/01/25 12:17:29;;;;;;;10.30;1.30;;;8.10;94.60;;;;;;5061104;28;21032;-81
2024/01/25 12:19:57;;;;;;;3.10;1.60;;;8.10;94.30;;;;;;5066782;28;20469;-81
2024/01/25 12:22:24;;;;;;;2.40;1.00;;;8.10;94.50;;;;;;5062235;28;20532;-83
2024/01/25 12:24:54;;;;;;;3.90;0.90;;;8.20;95.20;;;;;;5055596;28;21002;-83
2024/01/25 12:27:22;;;;;;;8.87;1.30;;;8.40;96.00;;;;;;5060576;28;20499;-81
2024/01/25 12:29:49;;;;;;;4.67;1.63;;;8.70;95.80;;;;;;5058837;28;20486;-84
2024/01/25 12:32:16;;;;;;;6.57;1.73;;;8.60;94.30;;;;;;5057940;28;20485;-83
2024/01/25 12:34:54;;;;;;;3.33;0.83;;;8.70;94.60;;;;;;5057660;28;21234;-81
2024/01/25 12:37:20;;;;;;;2.97;0.70;;;8.70;94.40;;;;;;5062709;28;20983;-81
2024/01/25 12:39:47;;;;;;;5.97;2.17;;;8.60;94.00;;;;;;5059953;28;20536;-81
2024/01/25 12:42:14;;;;;;;5.53;1.63;;;8.70;94.70;;;;;;5057567;28;20450;-82
2024/01/25 12:44:41;;;;;;;3.27;0.90;;;8.60;95.20;;;;;;5062491;28;20459;-81
2024/01/25 12:47:08;;;;;;;11.60;1.90;;;8.60;94.20;;;;;;5069758;28;20510;-83
2024/01/25 12:49:35;;;;;;;2.80;1.17;;;8.50;94.60;;;;;;5062499;28;20491;-81
2024/01/25 12:52:05;;;;;;;7.93;1.27;;;8.40;94.80;;;;;;5050785;28;20533;-80
2024/01/25 12:54:32;;;;;;;7.70;1.83;;;8.40;95.00;;;;;;5053744;28;20460;-81
2024/01/25 12:56:59;;;;;;;11.13;0.90;;;8.40;95.20;;;;;;5070780;28;21264;-81